Time;durP1;ratioP1;P1;durP2;ratioP2;P2;SDS_P1;SDS_P2;PMS_P1;PMS_P2;Temp;Humidity;BMP_temperature;BMP_pressure;BME280_temperature;BME280_humidity;BME280_pressure;Samples;Min_cycle;Max_cycle;Signal;HPM_P1;HPM_P2
2023/06/06 00:01:19;;;;;;;6.20;4.93;;;;;;;;;;5053667;28;20414;-44
2023/06/06 00:03:45;;;;;;;13.43;5.20;;;;;;;;;;5054456;28;20511;-44
2023/06/06 00:06:12;;;;;;;5.73;4.73;;;;;;;;;;5054732;28;20855;-44
2023/06/06 00:08:41;;;;;;;6.20;5.03;;;;;;;;;;5054499;28;20742;-44
2023/06/06 00:11:07;;;;;;;5.97;4.50;;;;;;;;;;5054492;28;20420;-44
2023/06/06 00:13:34;;;;;;;4.73;4.13;;;;;;;;;;5053511;28;20553;-44
2023/06/06 00:16:01;;;;;;;6.63;5.37;;;;;;;;;;5060123;28;21016;-44
2023/06/06 00:18:27;;;;;;;8.53;5.20;;;;;;;;;;5054337;28;20412;-44
2023/06/06 00:20:54;;;;;;;5.30;4.80;;;;;;;;;;5054871;28;20420;-44
2023/06/06 00:23:21;;;;;;;6.03;4.47;;;;;;;;;;5053863;28;20789;-44
2023/06/06 00:25:48;;;;;;;6.13;4.53;;;;;;;;;;5054324;28;20397;-44
2023/06/06 00:28:15;;;;;;;5.37;4.87;;;;;;;;;;5054191;28;20428;-44
2023/06/06 00:30:41;;;;;;;5.77;4.57;;;;;;;;;;5054175;28;20637;-44
2023/06/06 00:33:07;;;;;;;9.37;4.60;;;;;;;;;;5057345;28;20455;-44
2023/06/06 00:35:33;;;;;;;5.10;4.60;;;;;;;;;;5060319;28;20982;-44
2023/06/06 00:37:59;;;;;;;9.47;5.40;;;;;;;;;;5053858;28;20903;-44
2023/06/06 00:40:25;;;;;;;9.77;5.40;;;;;;;;;;5053917;28;20780;-44
2023/06/06 00:42:51;;;;;;;5.67;4.90;;;;;;;;;;5054037;28;20424;-44
2023/06/06 00:45:17;;;;;;;11.53;5.83;;;;;;;;;;5050555;28;20429;-44
2023/06/06 00:47:44;;;;;;;14.40;6.10;;;;;;;;;;5050703;28;20418;-44
2023/06/06 00:50:12;;;;;;;6.20;5.57;;;;;;;;;;5053832;28;20393;-44
2023/06/06 00:52:39;;;;;;;7.23;5.80;;;;;;;;;;5053178;28;20484;-44
2023/06/06 00:55:05;;;;;;;6.07;5.47;;;;;;;;;;5053640;28;20897;-44
2023/06/06 00:57:32;;;;;;;7.23;5.57;;;;;;;;;;5053611;28;20380;-44
2023/06/06 00:59:58;;;;;;;5.73;5.00;;;;;;;;;;5053670;28;20806;-44
2023/06/06 01:02:24;;;;;;;6.13;5.17;;;;;;;;;;5051537;28;20815;-44
2023/06/06 01:04:50;;;;;;;7.37;5.23;;;;;;;;;;5060806;28;20891;-44
2023/06/06 01:07:17;;;;;;;6.17;5.43;;;;;;;;;;5053188;28;20383;-44
2023/06/06 01:09:43;;;;;;;6.40;5.63;;;;;;;;;;5047063;28;20396;-44
2023/06/06 01:12:18;;;;;;;5.63;5.10;;;;;;;;;;5053369;28;20430;-44
2023/06/06 01:15:01;;;;;;;10.60;7.00;;;;;;;;;;5045014;28;20435;-44
2023/06/06 01:17:27;;;;;;;9.77;5.97;;;;;;;;;;5053234;28;20533;-44
2023/06/06 01:19:56;;;;;;;14.40;6.00;;;;;;;;;;5053262;28;20382;-44
2023/06/06 01:22:23;;;;;;;6.13;5.50;;;;;;;;;;5053023;28;20543;-44
2023/06/06 01:24:52;;;;;;;6.40;5.70;;;;;;;;;;5053046;28;20493;-44
2023/06/06 01:27:18;;;;;;;10.97;6.47;;;;;;;;;;5049747;28;20389;-44
2023/06/06 01:29:44;;;;;;;8.90;6.20;;;;;;;;;;5053087;28;20889;-44
2023/06/06 01:32:16;;;;;;;8.23;5.53;;;;;;;;;;5052905;28;20434;-44
2023/06/06 01:34:51;;;;;;;7.40;6.13;;;;;;;;;;5059035;28;20470;-44
2023/06/06 01:37:24;;;;;;;8.13;5.73;;;;;;;;;;5052871;28;20433;-44
2023/06/06 01:39:52;;;;;;;7.13;6.13;;;;;;;;;;5045792;28;20398;-44
2023/06/06 01:42:19;;;;;;;6.90;5.60;;;;;;;;;;5052738;28;20772;-44
2023/06/06 01:44:45;;;;;;;6.73;5.53;;;;;;;;;;5043846;28;20822;-44
2023/06/06 01:47:12;;;;;;;6.97;6.07;;;;;;;;;;5052999;28;20427;-44
2023/06/06 01:49:38;;;;;;;6.80;5.87;;;;;;;;;;5052669;28;20396;-44
2023/06/06 01:52:04;;;;;;;6.93;6.33;;;;;;;;;;5052450;28;20447;-44
2023/06/06 01:54:35;;;;;;;7.63;6.70;;;;;;;;;;5052333;28;20976;-44
2023/06/06 01:57:01;;;;;;;8.80;7.07;;;;;;;;;;5052462;28;20443;-44
2023/06/06 01:59:27;;;;;;;8.77;6.43;;;;;;;;;;5052398;28;20380;-44
2023/06/06 02:01:53;;;;;;;7.60;5.93;;;;;;;;;;5051904;28;20450;-44
2023/06/06 02:04:19;;;;;;;8.40;5.80;;;;;;;;;;5055392;28;20437;-44
2023/06/06 02:06:45;;;;;;;8.20;5.37;;;;;;;;;;5052298;28;20795;-44
2023/06/06 02:09:11;;;;;;;8.97;6.10;;;;;;;;;;5052997;28;20387;-44
2023/06/06 02:11:37;;;;;;;11.70;6.10;;;;;;;;;;5052144;28;20386;-44
2023/06/06 02:14:03;;;;;;;8.37;5.80;;;;;;;;;;5052436;28;20465;-44
2023/06/06 02:16:31;;;;;;;8.03;6.90;;;;;;;;;;5052017;28;20523;-44
2023/06/06 02:18:58;;;;;;;9.87;6.17;;;;;;;;;;5052174;28;20505;-44
2023/06/06 02:21:24;;;;;;;9.77;6.53;;;;;;;;;;5052158;28;20892;-44
2023/06/06 02:23:49;;;;;;;7.20;6.30;;;;;;;;;;5051865;28;20486;-44
2023/06/06 02:26:16;;;;;;;10.73;6.40;;;;;;;;;;5052013;28;20774;-44
2023/06/06 02:28:42;;;;;;;9.33;6.70;;;;;;;;;;5051877;28;20444;-44
2023/06/06 02:31:09;;;;;;;10.83;6.23;;;;;;;;;;5051986;28;20950;-44
2023/06/06 02:33:35;;;;;;;8.53;6.27;;;;;;;;;;5057791;28;20501;-44
2023/06/06 02:36:01;;;;;;;9.37;6.73;;;;;;;;;;5052510;28;20552;-44
2023/06/06 02:38:27;;;;;;;16.97;6.87;;;;;;;;;;5051854;28;20420;-44
2023/06/06 02:40:53;;;;;;;7.40;6.00;;;;;;;;;;5051733;28;20418;-44
2023/06/06 02:43:19;;;;;;;8.90;6.47;;;;;;;;;;5051444;28;20457;-44
2023/06/06 02:45:46;;;;;;;9.07;5.77;;;;;;;;;;5044078;28;20417;-44
2023/06/06 02:48:13;;;;;;;10.70;6.20;;;;;;;;;;5051679;28;20841;-44
2023/06/06 02:50:39;;;;;;;14.20;6.80;;;;;;;;;;5051539;28;20426;-44
2023/06/06 02:53:06;;;;;;;7.53;6.10;;;;;;;;;;5051259;28;20457;-44
2023/06/06 02:55:32;;;;;;;13.30;7.07;;;;;;;;;;5050580;28;20457;-44
2023/06/06 02:57:58;;;;;;;10.47;7.17;;;;;;;;;;5051395;28;20418;-44
2023/06/06 03:00:24;;;;;;;7.60;5.77;;;;;;;;;;5051544;28;20437;-44
2023/06/06 03:02:50;;;;;;;7.03;6.33;;;;;;;;;;5055793;28;20448;-44
2023/06/06 03:05:17;;;;;;;12.47;6.47;;;;;;;;;;5051518;28;20736;-44
2023/06/06 03:07:43;;;;;;;7.47;5.87;;;;;;;;;;5051352;28;20422;-44
2023/06/06 03:10:10;;;;;;;7.33;6.50;;;;;;;;;;5051388;28;20384;-44
2023/06/06 03:12:36;;;;;;;10.27;7.00;;;;;;;;;;5051181;28;20434;-44
2023/06/06 03:15:02;;;;;;;11.13;6.57;;;;;;;;;;5051301;28;20412;-44
2023/06/06 03:17:28;;;;;;;10.57;6.67;;;;;;;;;;5051253;28;20937;-44
2023/06/06 03:19:53;;;;;;;8.30;6.47;;;;;;;;;;5051649;28;20404;-44
2023/06/06 03:22:20;;;;;;;11.57;6.73;;;;;;;;;;5051299;28;20440;-44
2023/06/06 03:24:46;;;;;;;8.73;7.27;;;;;;;;;;5051006;28;20409;-44
2023/06/06 03:27:13;;;;;;;10.63;8.00;;;;;;;;;;5051305;28;20416;-44
2023/06/06 03:29:39;;;;;;;10.63;6.87;;;;;;;;;;5051264;28;20437;-44
2023/06/06 03:32:06;;;;;;;9.87;6.70;;;;;;;;;;5049451;28;20512;-44
2023/06/06 03:34:32;;;;;;;9.00;6.80;;;;;;;;;;5052324;28;20413;-44
2023/06/06 03:36:58;;;;;;;11.10;7.80;;;;;;;;;;5053296;28;20985;-44
2023/06/06 03:39:24;;;;;;;10.83;6.33;;;;;;;;;;5051067;28;20488;-44
2023/06/06 03:41:50;;;;;;;10.53;6.73;;;;;;;;;;5051277;28;20439;-44
2023/06/06 03:44:16;;;;;;;11.70;7.07;;;;;;;;;;5050991;28;20452;-44
2023/06/06 03:46:42;;;;;;;10.67;7.50;;;;;;;;;;5050945;28;20417;-44
2023/06/06 03:49:08;;;;;;;9.10;7.20;;;;;;;;;;5046339;28;20424;-44
2023/06/06 03:51:35;;;;;;;7.33;6.50;;;;;;;;;;5050917;28;20470;-44
2023/06/06 03:54:01;;;;;;;12.13;7.63;;;;;;;;;;5050649;28;20464;-44
2023/06/06 03:56:27;;;;;;;13.90;7.80;;;;;;;;;;5051009;28;20875;-44
2023/06/06 03:58:53;;;;;;;13.03;6.70;;;;;;;;;;5051078;28;20433;-44
2023/06/06 04:01:20;;;;;;;8.37;7.03;;;;;;;;;;5050878;28;20426;-44
2023/06/06 04:03:46;;;;;;;13.00;7.33;;;;;;;;;;5055142;28;20573;-44
2023/06/06 04:06:14;;;;;;;8.33;6.90;;;;;;;;;;5050887;28;20484;-44
2023/06/06 04:08:40;;;;;;;13.33;7.77;;;;;;;;;;5053874;28;20415;-44
2023/06/06 04:11:06;;;;;;;10.27;7.80;;;;;;;;;;5053853;28;20433;-44
2023/06/06 04:13:32;;;;;;;15.70;7.50;;;;;;;;;;5055595;28;20809;-44
2023/06/06 04:15:58;;;;;;;8.67;6.80;;;;;;;;;;5054395;28;20430;-44
2023/06/06 04:18:25;;;;;;;10.77;6.83;;;;;;;;;;5054472;28;20375;-44
2023/06/06 04:20:52;;;;;;;14.83;7.60;;;;;;;;;;5054426;28;20417;-44
2023/06/06 04:23:18;;;;;;;13.53;7.10;;;;;;;;;;5054023;28;20912;-44
2023/06/06 04:25:44;;;;;;;11.10;7.10;;;;;;;;;;5054265;28;20409;-44
2023/06/06 04:28:11;;;;;;;11.03;8.10;;;;;;;;;;5054213;28;20427;-44
2023/06/06 04:30:37;;;;;;;11.03;7.90;;;;;;;;;;5054656;28;20522;-44
2023/06/06 04:33:05;;;;;;;10.03;7.67;;;;;;;;;;5052773;28;20404;-44
2023/06/06 04:35:30;;;;;;;14.37;7.67;;;;;;;;;;5056945;28;20459;-44
2023/06/06 04:37:56;;;;;;;10.90;7.00;;;;;;;;;;5054077;28;20409;-44
2023/06/06 04:40:22;;;;;;;15.43;8.10;;;;;;;;;;5054187;28;20415;-44
2023/06/06 04:42:50;;;;;;;10.27;7.57;;;;;;;;;;5053752;28;20463;-44
2023/06/06 04:45:16;;;;;;;9.80;7.00;;;;;;;;;;5054260;28;20415;-44
2023/06/06 04:47:45;;;;;;;15.67;7.83;;;;;;;;;;5053641;28;20417;-44
2023/06/06 04:50:12;;;;;;;11.90;8.20;;;;;;;;;;5053770;28;20786;-44
2023/06/06 04:52:38;;;;;;;11.97;7.37;;;;;;;;;;5087271;22;20512;-44
2023/06/06 04:55:05;;;;;;;11.40;7.67;;;;;;;;;;5034093;28;20434;-44
2023/06/06 04:57:32;;;;;;;13.40;7.90;;;;;;;;;;5033898;28;20830;-44
2023/06/06 04:59:58;;;;;;;13.17;7.43;;;;;;;;;;5033916;28;20546;-44
2023/06/06 05:02:28;;;;;;;12.50;8.20;;;;;;;;;;5036946;28;20432;-43
2023/06/06 05:04:56;;;;;;;21.67;9.47;;;;;;;;;;5052381;28;20940;-44
2023/06/06 05:07:25;;;;;;;12.87;8.83;;;;;;;;;;5052395;28;20437;-44
2023/06/06 05:09:54;;;;;;;12.43;8.83;;;;;;;;;;5041887;28;20417;-44
2023/06/06 05:12:21;;;;;;;12.13;8.10;;;;;;;;;;5050294;28;20832;-43
2023/06/06 05:14:47;;;;;;;13.33;7.00;;;;;;;;;;5053255;28;20443;-44
2023/06/06 05:17:17;;;;;;;14.03;8.50;;;;;;;;;;5044920;28;20449;-44
2023/06/06 05:19:43;;;;;;;10.40;7.50;;;;;;;;;;5051964;28;20527;-44
2023/06/06 05:22:09;;;;;;;20.30;8.80;;;;;;;;;;5053201;28;20453;-44
2023/06/06 05:24:35;;;;;;;11.23;7.50;;;;;;;;;;5044745;28;20419;-44
2023/06/06 05:27:01;;;;;;;11.83;7.80;;;;;;;;;;5053170;28;20504;-44
2023/06/06 05:29:27;;;;;;;12.97;9.43;;;;;;;;;;5051850;28;20391;-44
2023/06/06 05:31:53;;;;;;;11.30;8.43;;;;;;;;;;5046155;28;20384;-43
2023/06/06 05:34:19;;;;;;;12.63;7.93;;;;;;;;;;5050804;28;20416;-44
2023/06/06 05:36:45;;;;;;;15.97;9.00;;;;;;;;;;5045049;28;20483;-43
2023/06/06 05:39:11;;;;;;;13.60;9.43;;;;;;;;;;5052194;28;20808;-44
2023/06/06 05:41:37;;;;;;;18.03;8.83;;;;;;;;;;5044628;28;20406;-44
2023/06/06 05:44:03;;;;;;;18.37;8.43;;;;;;;;;;5052580;28;20433;-44
2023/06/06 05:46:29;;;;;;;15.43;9.60;;;;;;;;;;5051010;28;20406;-44
2023/06/06 05:48:55;;;;;;;12.17;9.23;;;;;;;;;;5051304;28;20551;-43
2023/06/06 05:51:21;;;;;;;18.13;9.30;;;;;;;;;;5052294;28;20410;-44
2023/06/06 05:53:47;;;;;;;12.13;8.33;;;;;;;;;;5044723;28;20416;-43
2023/06/06 05:56:14;;;;;;;12.53;8.47;;;;;;;;;;5048508;28;20784;-44
2023/06/06 05:58:46;;;;;;;15.63;10.10;;;;;;;;;;5043989;28;20920;-44
2023/06/06 06:01:12;;;;;;;11.97;9.03;;;;;;;;;;5051720;28;20424;-44
2023/06/06 06:03:39;;;;;;;18.47;9.80;;;;;;;;;;5051658;28;20936;-44
2023/06/06 06:06:08;;;;;;;13.43;9.10;;;;;;;;;;5052596;28;20499;-44
2023/06/06 06:08:34;;;;;;;12.63;8.47;;;;;;;;;;5051654;28;20451;-44
2023/06/06 06:11:00;;;;;;;13.83;10.30;;;;;;;;;;5051857;28;20422;-44
2023/06/06 06:13:26;;;;;;;12.30;8.97;;;;;;;;;;5052346;28;20401;-43
2023/06/06 06:15:52;;;;;;;12.43;9.50;;;;;;;;;;5043890;28;20449;-44
2023/06/06 06:18:18;;;;;;;14.33;8.83;;;;;;;;;;5052297;28;20383;-44
2023/06/06 06:20:44;;;;;;;18.17;10.17;;;;;;;;;;5044041;28;20776;-44
2023/06/06 06:23:10;;;;;;;16.30;9.63;;;;;;;;;;5052117;28;20887;-44
2023/06/06 06:25:37;;;;;;;19.70;9.63;;;;;;;;;;5052025;28;20473;-44
2023/06/06 06:28:03;;;;;;;17.63;10.30;;;;;;;;;;5051941;28;20382;-44
2023/06/06 06:30:29;;;;;;;12.90;9.60;;;;;;;;;;5041811;28;20382;-44
2023/06/06 06:32:56;;;;;;;17.30;9.57;;;;;;;;;;5045221;28;20429;-44
2023/06/06 06:35:22;;;;;;;13.40;9.20;;;;;;;;;;5050774;28;20386;-44
2023/06/06 06:37:48;;;;;;;16.13;9.50;;;;;;;;;;5043374;28;20436;-44
2023/06/06 06:40:15;;;;;;;16.17;9.93;;;;;;;;;;5040340;28;20440;-44
2023/06/06 06:42:43;;;;;;;15.33;8.80;;;;;;;;;;5051149;28;20452;-44
2023/06/06 06:45:12;;;;;;;15.87;8.70;;;;;;;;;;5051744;28;20507;-44
2023/06/06 06:47:39;;;;;;;17.43;9.57;;;;;;;;;;5048855;28;20897;-44
2023/06/06 06:50:05;;;;;;;11.77;8.67;;;;;;;;;;5046563;28;20371;-44
2023/06/06 06:52:35;;;;;;;20.27;10.40;;;;;;;;;;5051547;28;20416;-44
2023/06/06 06:55:01;;;;;;;15.90;8.90;;;;;;;;;;5043458;28;20458;-44
2023/06/06 06:57:28;;;;;;;16.20;10.23;;;;;;;;;;5051342;28;20481;-44
2023/06/06 06:59:55;;;;;;;12.43;9.10;;;;;;;;;;5051592;28;20420;-44
2023/06/06 07:02:23;;;;;;;14.53;9.37;;;;;;;;;;5051381;28;20520;-44
2023/06/06 07:04:49;;;;;;;12.00;9.17;;;;;;;;;;5050481;28;20400;-44
2023/06/06 07:07:15;;;;;;;12.57;9.13;;;;;;;;;;5046267;28;20893;-44
2023/06/06 07:09:43;;;;;;;15.57;8.10;;;;;;;;;;5051370;28;20404;-44
2023/06/06 07:12:10;;;;;;;12.90;8.97;;;;;;;;;;5043303;28;20727;-44
2023/06/06 07:14:36;;;;;;;15.60;9.97;;;;;;;;;;5051158;28;20913;-44
2023/06/06 07:17:03;;;;;;;15.27;9.87;;;;;;;;;;5043029;28;20500;-44
2023/06/06 07:19:29;;;;;;;16.33;9.90;;;;;;;;;;5051157;28;20409;-44
2023/06/06 07:21:56;;;;;;;14.37;8.93;;;;;;;;;;5051489;28;20915;-44
2023/06/06 07:24:22;;;;;;;14.87;8.77;;;;;;;;;;5050285;28;20487;-44
2023/06/06 07:26:51;;;;;;;20.07;10.60;;;;;;;;;;5039733;28;20422;-44
2023/06/06 07:29:17;;;;;;;12.23;8.00;;;;;;;;;;5047736;28;20444;-44
2023/06/06 07:31:43;;;;;;;11.53;8.50;;;;;;;;;;5043814;28;20470;-44
2023/06/06 07:34:09;;;;;;;18.13;9.60;;;;;;;;;;5051004;28;20493;-44
2023/06/06 07:36:36;;;;;;;17.00;9.40;;;;;;;;;;5042839;28;20546;-44
2023/06/06 07:39:02;;;;;;;17.53;9.10;;;;;;;;;;5051080;28;20407;-44
2023/06/06 07:41:33;;;;;;;14.90;8.90;;;;;;;;;;5051241;28;20411;-44
2023/06/06 07:43:59;;;;;;;21.60;10.00;;;;;;;;;;5048993;28;20435;-45
2023/06/06 07:46:25;;;;;;;12.40;9.40;;;;;;;;;;5052499;28;20788;-44
2023/06/06 07:48:51;;;;;;;15.27;9.43;;;;;;;;;;5055024;28;20423;-44
2023/06/06 07:51:17;;;;;;;15.20;9.30;;;;;;;;;;5055104;28;20416;-44
2023/06/06 07:53:46;;;;;;;14.30;8.80;;;;;;;;;;5046256;28;20463;-45
2023/06/06 07:56:20;;;;;;;17.30;10.10;;;;;;;;;;5046515;28;20471;-45
2023/06/06 07:58:52;;;;;;;15.37;8.90;;;;;;;;;;5049111;28;20408;-45
2023/06/06 08:01:21;;;;;;;12.53;8.60;;;;;;;;;;5051173;28;20432;-44
2023/06/06 08:03:51;;;;;;;12.70;8.50;;;;;;;;;;5054506;28;20422;-44
2023/06/06 08:06:20;;;;;;;15.30;9.10;;;;;;;;;;5054592;28;20456;-44
2023/06/06 08:08:48;;;;;;;13.13;8.33;;;;;;;;;;5043025;28;20420;-44
2023/06/06 08:11:14;;;;;;;13.67;8.40;;;;;;;;;;5050688;28;20412;-44
2023/06/06 08:13:40;;;;;;;15.60;9.23;;;;;;;;;;5054389;28;20420;-44
2023/06/06 08:16:06;;;;;;;11.37;7.73;;;;;;;;;;5046112;28;20453;-44
2023/06/06 08:18:32;;;;;;;12.90;8.43;;;;;;;;;;5054341;28;20492;-45
2023/06/06 08:20:58;;;;;;;16.07;8.07;;;;;;;;;;5054428;28;20500;-44
2023/06/06 08:23:24;;;;;;;11.53;8.07;;;;;;;;;;5051679;28;20436;-45
2023/06/06 08:25:55;;;;;;;10.70;7.40;;;;;;;;;;5046837;28;20815;-45
2023/06/06 08:28:28;;;;;;;13.30;8.70;;;;;;;;;;5055867;28;20409;-45
2023/06/06 08:30:54;;;;;;;13.57;8.63;;;;;;;;;;5045045;28;20468;-45
2023/06/06 08:33:20;;;;;;;12.87;8.20;;;;;;;;;;5052913;28;20456;-45
2023/06/06 08:35:47;;;;;;;11.00;8.50;;;;;;;;;;5045680;28;20461;-45
2023/06/06 08:38:13;;;;;;;12.27;7.23;;;;;;;;;;5044394;28;20431;-45
2023/06/06 08:40:39;;;;;;;10.90;7.57;;;;;;;;;;5053866;28;20448;-45
2023/06/06 08:43:12;;;;;;;15.97;7.67;;;;;;;;;;5046514;28;20451;-45
2023/06/06 08:45:52;;;;;;;12.93;5.67;;;;;;;;;;5049121;28;20437;-45
2023/06/06 08:48:18;;;;;;;11.63;7.23;;;;;;;;;;5050520;28;20508;-45
2023/06/06 08:50:45;;;;;;;9.70;7.77;;;;;;;;;;5042463;28;21105;-45
2023/06/06 08:53:12;;;;;;;14.20;8.77;;;;;;;;;;5049147;28;20452;-45
2023/06/06 08:55:38;;;;;;;13.07;8.30;;;;;;;;;;5053749;28;20962;-45
2023/06/06 08:58:05;;;;;;;8.27;6.70;;;;;;;;;;5045358;28;20437;-45
2023/06/06 09:00:31;;;;;;;9.60;7.67;;;;;;;;;;5053891;28;20417;-45
2023/06/06 09:02:59;;;;;;;6.57;5.87;;;;;;;;;;5046971;28;20576;-45
2023/06/06 09:05:25;;;;;;;9.63;5.40;;;;;;;;;;5042901;28;20453;-45
2023/06/06 09:07:53;;;;;;;12.40;7.20;;;;;;;;;;5053477;28;20485;-45
2023/06/06 09:10:19;;;;;;;9.80;8.10;;;;;;;;;;5053383;28;20406;-45
2023/06/06 09:12:46;;;;;;;11.80;7.93;;;;;;;;;;5045150;28;20552;-45
2023/06/06 09:15:12;;;;;;;9.60;8.43;;;;;;;;;;5052426;28;20429;-45
2023/06/06 09:17:39;;;;;;;8.13;6.60;;;;;;;;;;5052998;28;20443;-45
2023/06/06 09:20:15;;;;;;;8.57;7.13;;;;;;;;;;5053326;28;20424;-45
2023/06/06 09:22:42;;;;;;;15.90;7.50;;;;;;;;;;5044844;28;20428;-45
2023/06/06 09:25:17;;;;;;;13.33;9.00;;;;;;;;;;5053246;28;20413;-45
2023/06/06 09:27:44;;;;;;;11.43;8.20;;;;;;;;;;5044990;28;20904;-45
2023/06/06 09:30:29;;;;;;;8.57;7.60;;;;;;;;;;5053227;28;20425;-45
2023/06/06 09:33:00;;;;;;;9.50;7.57;;;;;;;;;;5041272;28;20941;-45
2023/06/06 09:35:44;;;;;;;11.50;8.30;;;;;;;;;;5050655;28;20409;-45
2023/06/06 09:38:20;;;;;;;9.40;7.70;;;;;;;;;;5053049;28;20409;-45
2023/06/06 09:40:47;;;;;;;9.17;7.70;;;;;;;;;;5045161;28;20400;-45
2023/06/06 09:43:13;;;;;;;13.97;8.70;;;;;;;;;;5052754;28;20794;-45
2023/06/06 09:45:51;;;;;;;13.20;7.90;;;;;;;;;;5043650;28;20904;-45
2023/06/06 09:48:25;;;;;;;12.53;9.20;;;;;;;;;;5051981;28;20990;-45
2023/06/06 09:50:52;;;;;;;12.40;8.37;;;;;;;;;;5047393;28;20795;-45
2023/06/06 09:53:18;;;;;;;9.30;6.93;;;;;;;;;;5050930;28;20453;-45
2023/06/06 09:55:44;;;;;;;8.57;6.43;;;;;;;;;;5052562;28;20453;-45
2023/06/06 09:58:15;;;;;;;9.27;8.37;;;;;;;;;;5052553;28;20782;-45
2023/06/06 10:00:41;;;;;;;13.93;8.80;;;;;;;;;;5052432;28;20401;-45
2023/06/06 10:03:08;;;;;;;9.70;8.20;;;;;;;;;;5044022;28;20425;-45
2023/06/06 10:05:34;;;;;;;9.53;7.87;;;;;;;;;;5043805;28;20416;-45
2023/06/06 10:08:01;;;;;;;9.40;7.40;;;;;;;;;;5052479;28;20425;-45
2023/06/06 10:10:26;;;;;;;9.90;7.33;;;;;;;;;;5047731;28;20421;-45
2023/06/06 10:12:55;;;;;;;13.17;8.30;;;;;;;;;;5047279;28;20770;-45
2023/06/06 10:15:21;;;;;;;11.50;7.30;;;;;;;;;;5047954;28;20433;-45
2023/06/06 10:17:47;;;;;;;10.60;7.30;;;;;;;;;;5040671;28;20406;-45
2023/06/06 10:20:13;;;;;;;16.90;7.27;;;;;;;;;;5048335;28;20409;-45
2023/06/06 10:22:42;;;;;;;9.93;8.10;;;;;;;;;;5052069;28;20429;-45
2023/06/06 10:25:11;;;;;;;10.97;7.73;;;;;;;;;;5047341;28;20816;-45
2023/06/06 10:27:57;;;;;;;8.00;7.20;;;;;;;;;;5043927;28;20421;-45
2023/06/06 10:30:30;;;;;;;9.27;6.87;;;;;;;;;;5038387;28;20421;-45
2023/06/06 10:33:11;;;;;;;10.23;6.93;;;;;;;;;;5051869;28;20422;-45
2023/06/06 10:35:38;;;;;;;8.80;5.97;;;;;;;;;;5043458;28;20450;-45
2023/06/06 10:38:06;;;;;;;7.00;6.30;;;;;;;;;;5051691;28;20416;-45
2023/06/06 10:40:51;;;;;;;9.83;7.50;;;;;;;;;;5049906;28;20413;-45
2023/06/06 10:43:46;;;;;;;8.30;7.30;;;;;;;;;;5048252;28;20421;-45
2023/06/06 10:46:12;;;;;;;6.83;5.97;;;;;;;;;;5039908;28;20865;-45
2023/06/06 10:48:39;;;;;;;14.37;8.43;;;;;;;;;;5048215;28;20857;-45
2023/06/06 10:51:06;;;;;;;10.77;6.37;;;;;;;;;;5046858;28;20759;-45
2023/06/06 10:53:32;;;;;;;7.90;6.43;;;;;;;;;;5051977;28;20449;-45
2023/06/06 10:55:58;;;;;;;14.63;7.80;;;;;;;;;;5044082;28;20502;-44
2023/06/06 10:58:32;;;;;;;11.47;7.50;;;;;;;;;;5051574;28;20770;-45
2023/06/06 11:01:02;;;;;;;10.17;6.70;;;;;;;;;;5051842;28;20462;-44
2023/06/06 11:03:35;;;;;;;7.27;6.57;;;;;;;;;;5051706;28;20421;-45
2023/06/06 11:06:01;;;;;;;10.03;6.20;;;;;;;;;;5045537;28;20429;-45
2023/06/06 11:08:34;;;;;;;13.50;7.53;;;;;;;;;;5049485;28;20406;-45
2023/06/06 11:11:15;;;;;;;8.40;6.03;;;;;;;;;;5051469;28;20174;-45
2023/06/06 11:13:56;;;;;;;6.67;5.97;;;;;;;;;;5039251;28;20468;-45
2023/06/06 11:16:31;;;;;;;14.83;7.50;;;;;;;;;;5047763;28;20551;-45
2023/06/06 11:19:04;;;;;;;7.00;5.83;;;;;;;;;;5055867;28;20466;-45
2023/06/06 11:21:33;;;;;;;8.30;7.07;;;;;;;;;;5047281;28;20410;-44
2023/06/06 11:23:59;;;;;;;9.10;6.00;;;;;;;;;;5049179;28;20432;-44
2023/06/06 11:26:26;;;;;;;7.77;6.10;;;;;;;;;;5047117;28;20551;-45
2023/06/06 11:28:53;;;;;;;10.50;6.20;;;;;;;;;;5047260;28;20758;-45
2023/06/06 11:31:20;;;;;;;8.93;5.60;;;;;;;;;;5055370;28;20400;-45
2023/06/06 11:33:46;;;;;;;10.23;5.57;;;;;;;;;;5051203;28;20422;-46
2023/06/06 11:36:12;;;;;;;9.93;4.80;;;;;;;;;;5051063;28;20548;-45
2023/06/06 11:38:42;;;;;;;7.20;5.00;;;;;;;;;;5055219;28;20959;-45
2023/06/06 11:41:08;;;;;;;4.90;4.50;;;;;;;;;;5047278;28;20413;-45
2023/06/06 11:43:34;;;;;;;7.37;5.07;;;;;;;;;;5050522;28;20506;-45
2023/06/06 11:46:05;;;;;;;5.97;4.60;;;;;;;;;;5052233;28;20413;-45
2023/06/06 11:48:31;;;;;;;6.53;4.53;;;;;;;;;;5050219;28;20429;-45
2023/06/06 11:50:57;;;;;;;5.80;5.30;;;;;;;;;;5055028;28;20519;-45
2023/06/06 11:53:28;;;;;;;7.03;4.60;;;;;;;;;;5053843;28;20556;-46
2023/06/06 11:55:54;;;;;;;5.37;4.30;;;;;;;;;;5043276;28;20465;-45
2023/06/06 11:58:20;;;;;;;5.17;4.67;;;;;;;;;;5052125;28;20851;-45
2023/06/06 12:00:47;;;;;;;10.83;5.50;;;;;;;;;;5054968;28;20405;-46
2023/06/06 12:03:16;;;;;;;7.10;4.83;;;;;;;;;;5046193;28;20958;-45
2023/06/06 12:05:42;;;;;;;6.90;5.70;;;;;;;;;;5054810;28;20440;-45
2023/06/06 12:08:08;;;;;;;8.90;5.07;;;;;;;;;;5047887;28;20584;-44
2023/06/06 12:10:34;;;;;;;6.27;4.80;;;;;;;;;;5045224;28;20425;-45
2023/06/06 12:13:00;;;;;;;5.10;4.60;;;;;;;;;;5054367;28;20876;-45
2023/06/06 12:15:45;;;;;;;4.77;4.00;;;;;;;;;;5051776;28;20520;-45
2023/06/06 12:18:11;;;;;;;4.87;4.37;;;;;;;;;;5049053;28;20847;-45
2023/06/06 12:20:37;;;;;;;6.97;4.10;;;;;;;;;;5054546;28;20516;-45
2023/06/06 12:23:03;;;;;;;4.70;4.30;;;;;;;;;;5054192;28;20828;-45
2023/06/06 12:25:29;;;;;;;7.13;3.73;;;;;;;;;;5054473;28;20571;-45
2023/06/06 12:28:07;;;;;;;5.20;3.80;;;;;;;;;;5054034;28;20704;-45
2023/06/06 12:30:33;;;;;;;7.83;3.77;;;;;;;;;;5049242;28;20412;-45
2023/06/06 12:33:03;;;;;;;5.77;4.73;;;;;;;;;;5054118;28;20433;-44
2023/06/06 12:35:29;;;;;;;6.20;4.30;;;;;;;;;;5054192;28;20958;-45
2023/06/06 12:37:55;;;;;;;4.73;4.23;;;;;;;;;;5054156;28;20919;-45
2023/06/06 12:40:23;;;;;;;4.47;4.10;;;;;;;;;;5054149;28;20408;-46
2023/06/06 12:42:59;;;;;;;4.80;3.80;;;;;;;;;;5053833;28;20432;-45
2023/06/06 12:45:25;;;;;;;5.43;4.37;;;;;;;;;;5053120;28;20962;-45
2023/06/06 12:47:52;;;;;;;4.10;3.80;;;;;;;;;;5053947;28;20833;-45
2023/06/06 12:50:18;;;;;;;3.53;3.23;;;;;;;;;;5053949;28;20956;-45
2023/06/06 12:52:44;;;;;;;4.37;3.97;;;;;;;;;;5053473;28;20453;-45
2023/06/06 12:55:10;;;;;;;4.00;3.60;;;;;;;;;;5053754;28;20418;-45
2023/06/06 12:57:36;;;;;;;4.03;3.10;;;;;;;;;;5053868;28;20465;-44
2023/06/06 13:00:08;;;;;;;4.03;3.20;;;;;;;;;;5054155;28;20755;-45
2023/06/06 13:02:34;;;;;;;3.87;2.90;;;;;;;;;;5053659;28;20788;-45
2023/06/06 13:05:00;;;;;;;5.33;3.40;;;;;;;;;;5053717;28;20393;-45
2023/06/06 13:07:25;;;;;;;8.60;3.73;;;;;;;;;;5053469;28;20413;-44
2023/06/06 13:09:53;;;;;;;7.40;3.70;;;;;;;;;;5053425;28;20409;-45
2023/06/06 13:12:19;;;;;;;6.40;3.00;;;;;;;;;;5053424;28;20190;-44
2023/06/06 13:14:45;;;;;;;3.33;3.03;;;;;;;;;;5045881;28;20420;-44
2023/06/06 13:17:11;;;;;;;3.83;3.47;;;;;;;;;;5052939;28;20651;-45
2023/06/06 13:19:37;;;;;;;3.70;3.40;;;;;;;;;;5048893;28;20422;-45
2023/06/06 13:22:03;;;;;;;3.70;3.40;;;;;;;;;;5032709;28;20467;-45
2023/06/06 13:24:29;;;;;;;3.40;3.10;;;;;;;;;;5053032;28;20501;-45
2023/06/06 13:26:55;;;;;;;4.03;3.67;;;;;;;;;;5053245;28;20839;-45
2023/06/06 13:29:21;;;;;;;4.13;3.50;;;;;;;;;;5053397;28;20425;-45
2023/06/06 13:31:47;;;;;;;3.50;3.10;;;;;;;;;;5053347;28;20939;-44
2023/06/06 13:34:13;;;;;;;4.90;3.87;;;;;;;;;;5052844;28;20982;-44
2023/06/06 13:36:39;;;;;;;5.80;3.67;;;;;;;;;;5052924;28;20453;-44
2023/06/06 13:39:05;;;;;;;5.67;3.60;;;;;;;;;;5052710;28;21059;-44
2023/06/06 13:41:32;;;;;;;4.93;4.43;;;;;;;;;;5052412;28;20760;-44
2023/06/06 13:44:01;;;;;;;6.80;3.63;;;;;;;;;;5052653;28;20804;-44
2023/06/06 13:46:27;;;;;;;6.17;3.60;;;;;;;;;;5051907;28;20920;-45
2023/06/06 13:48:53;;;;;;;3.80;3.50;;;;;;;;;;5051082;28;20436;-45
2023/06/06 13:51:19;;;;;;;4.70;3.23;;;;;;;;;;5052757;28;20504;-45
2023/06/06 13:53:45;;;;;;;4.17;3.50;;;;;;;;;;5051885;28;20544;-45
2023/06/06 13:56:11;;;;;;;5.37;3.40;;;;;;;;;;5051775;28;20457;-45
2023/06/06 13:58:40;;;;;;;3.50;3.20;;;;;;;;;;5044330;28;20857;-45
2023/06/06 14:01:06;;;;;;;4.43;3.40;;;;;;;;;;5052698;28;20463;-45
2023/06/06 14:03:33;;;;;;;5.63;3.23;;;;;;;;;;5052199;28;20436;-45
2023/06/06 14:05:59;;;;;;;4.40;3.33;;;;;;;;;;5044070;28;20843;-45
2023/06/06 14:08:25;;;;;;;3.87;3.33;;;;;;;;;;5052418;28;20916;-44
2023/06/06 14:10:51;;;;;;;4.60;4.07;;;;;;;;;;5047808;28;20497;-45
2023/06/06 14:13:17;;;;;;;3.13;2.83;;;;;;;;;;5048668;28;20944;-45
2023/06/06 14:15:44;;;;;;;5.33;3.10;;;;;;;;;;5051227;28;20421;-44
2023/06/06 14:18:10;;;;;;;6.50;3.80;;;;;;;;;;5051586;28;20466;-45
2023/06/06 14:20:49;;;;;;;4.03;2.90;;;;;;;;;;5052143;28;20496;-45
2023/06/06 14:23:18;;;;;;;3.80;3.50;;;;;;;;;;5048187;28;20420;-45
2023/06/06 14:25:44;;;;;;;4.63;3.10;;;;;;;;;;5049662;28;20782;-45
2023/06/06 14:28:13;;;;;;;3.53;3.23;;;;;;;;;;5044950;28;20956;-45
2023/06/06 14:30:39;;;;;;;4.07;3.70;;;;;;;;;;5043224;28;20460;-45
2023/06/06 14:33:05;;;;;;;3.93;3.50;;;;;;;;;;5051740;28;20940;-45
2023/06/06 14:35:31;;;;;;;7.07;3.10;;;;;;;;;;5050041;28;20505;-45
2023/06/06 14:37:57;;;;;;;5.87;3.57;;;;;;;;;;5045761;28;20855;-45